EST,Max TemperatureF,Mean TemperatureF,Min TemperatureF,Max Dew PointF,MeanDew PointF,Min DewpointF,Max Humidity, Mean Humidity, Min Humidity, Max Sea Level PressureIn, Mean Sea Level PressureIn, Min Sea Level PressureIn, Max VisibilityMiles, Mean VisibilityMiles, Min VisibilityMiles, Max Wind SpeedMPH, Mean Wind SpeedMPH, Max Gust SpeedMPH,PrecipitationIn, CloudCover, Events, WindDirDegrees
2012-12-1,33,28,22,32,23,15,100,78,55,30.57,30.49,30.41,10,5,1,9,5,12,0.04,8,Rain-Snow,50
2012-12-2,46,39,32,43,38,32,100,88,76,30.43,30.20,30.02,10,4,0,18,6,32,0.24,7,Fog-Rain,218
2012-12-3,47,39,30,45,38,30,100,88,76,30.27,30.15,30.01,10,6,0,20,6,25,T,6,Fog-Rain,289
2012-12-4,54,42,30,51,41,30,100,95,89,30.26,30.14,29.88,8,5,0,16,4,23,0.00,8,Fog,200
2012-12-5,55,40,25,50,33,13,93,73,53,30.19,29.98,29.83,10,10,6,25,13,36,0.19,7,Rain,293
2012-12-6,34,27,19,18,16,13,84,67,49,30.35,30.28,30.20,10,10,10,16,5,22,0.00,0,,293
2012-12-7,37,28,19,36,29,17,100,84,68,30.24,30.10,30.00,10,8,4,13,2,20,0.16,6,Rain,189
2012-12-8,44,40,35,43,39,35,100,96,92,30.00,29.90,29.82,8,2,0,8,1,10,0.37,8,Fog-Rain,325
2012-12-9,44,39,34,41,32,27,100,77,53,30.23,30.13,30.00,10,10,5,16,6,24,0.14,5,Rain,326
2012-12-10,53,45,36,50,42,35,100,95,89,30.01,29.67,29.49,10,6,0,23,8,31,0.19,8,Fog-Rain,264
2012-12-11,40,33,25,36,27,20,92,78,64,30.17,29.88,29.60,10,10,4,22,9,30,0.12,6,Rain,296
2012-12-12,38,29,20,23,21,19,92,72,52,30.42,30.33,30.18,10,10,8,13,4,17,0.00,1,,283
2012-12-13,38,29,20,27,22,18,100,77,54,30.46,30.39,30.27,10,8,6,9,2,13,0.00,2,,299
2012-12-14,42,30,18,28,23,16,100,72,43,30.26,30.18,30.10,10,9,4,18,5,25,0.00,3,,297
2012-12-15,41,33,25,29,24,17,92,73,54,30.28,30.24,30.16,10,10,10,10,2,15,0.00,1,,291
2012-12-16,32,30,28,28,25,20,92,75,58,30.21,30.11,29.98,10,9,5,13,7,18,T,8,Rain,87
2012-12-17,37,34,31,35,31,28,100,93,85,29.97,29.89,29.72,10,8,4,13,6,20,0.31,8,Rain,56
2012-12-18,42,39,35,41,38,33,100,96,92,29.69,29.48,29.41,10,4,1,21,6,30,0.63,8,Rain,338
2012-12-19,37,35,33,32,29,25,96,83,69,30.07,29.75,29.52,10,9,2,22,13,31,0.07,8,Snow,297
2012-12-20,40,32,24,31,27,22,88,74,59,30.20,30.04,29.87,10,9,2,16,6,23,0.05,3,Snow,117
2012-12-21,49,41,33,45,35,27,100,88,75,29.82,29.22,28.97,10,7,2,23,10,33,0.54,8,Rain-Snow,177
2012-12-22,33,29,25,29,22,15,92,78,63,29.72,29.37,29.17,10,4,0,39,20,52,0.03,8,Fog-Snow,272
2012-12-23,33,29,25,23,20,17,75,63,51,29.86,29.80,29.70,10,10,2,29,10,46,T,7,Snow,273
2012-12-24,32,28,23,23,19,17,81,70,58,30.06,29.97,29.87,10,10,10,20,7,29,0.00,5,,298
2012-12-25,29,26,22,27,23,18,92,81,69,30.25,30.03,29.90,10,7,1,14,6,20,0.04,7,Snow,350
2012-12-26,31,22,13,27,18,10,92,70,47,30.31,30.06,29.70,10,6,0,22,6,35,0.16,4,Fog-Snow,57
2012-12-27,32,27,21,30,25,17,92,87,81,29.76,29.51,29.38,10,4,0,24,14,36,0.42,8,Fog-Rain-Snow,2
2012-12-28,27,24,21,21,19,17,88,82,75,30.05,29.97,29.78,10,10,6,24,13,31,T,8,Snow,297
2012-12-29,28,25,22,25,23,19,96,86,75,30.01,29.66,29.47,10,4,0,13,4,16,0.13,8,Fog-Snow,2
2012-12-30,24,20,15,22,12,7,88,75,61,30.09,29.82,29.51,10,3,0,37,18,52,0.01,5,Fog-Snow,296
2012-12-31,32,24,16,21,17,7,84,73,61,30.08,29.95,29.74,10,10,10,20,9,28,T,5,,254